sensor_id;sensor_type;location;lat;lon;timestamp;P1;durP1;ratioP1;P2;durP2;ratioP2
21955;SDS011;11142;49.930;8.606;2022-09-17T00:01:40;10.32;;;5.40;;
21955;SDS011;11142;49.930;8.606;2022-09-17T00:04:08;6.53;;;3.90;;
21955;SDS011;11142;49.930;8.606;2022-09-17T00:06:38;6.45;;;3.30;;
21955;SDS011;11142;49.930;8.606;2022-09-17T00:09:06;7.13;;;2.40;;
21955;SDS011;11142;49.930;8.606;2022-09-17T00:11:35;4.13;;;2.55;;
21955;SDS011;11142;49.930;8.606;2022-09-17T00:14:06;6.22;;;2.33;;
21955;SDS011;11142;49.930;8.606;2022-09-17T00:16:36;3.30;;;1.88;;
21955;SDS011;11142;49.930;8.606;2022-09-17T00:19:07;3.45;;;1.30;;
21955;SDS011;11142;49.930;8.606;2022-09-17T00:21:41;2.28;;;1.50;;
21955;SDS011;11142;49.930;8.606;2022-09-17T00:24:11;2.13;;;1.40;;
21955;SDS011;11142;49.930;8.606;2022-09-17T00:26:40;5.70;;;1.70;;
21955;SDS011;11142;49.930;8.606;2022-09-17T00:29:08;1.75;;;1.40;;
21955;SDS011;11142;49.930;8.606;2022-09-17T00:31:38;4.03;;;2.58;;
21955;SDS011;11142;49.930;8.606;2022-09-17T00:34:06;2.92;;;1.67;;
21955;SDS011;11142;49.930;8.606;2022-09-17T00:36:34;2.70;;;1.73;;
21955;SDS011;11142;49.930;8.606;2022-09-17T00:39:05;3.20;;;1.70;;
21955;SDS011;11142;49.930;8.606;2022-09-17T00:41:35;4.20;;;2.30;;
21955;SDS011;11142;49.930;8.606;2022-09-17T00:47:07;7.13;;;3.22;;
21955;SDS011;11142;49.930;8.606;2022-09-17T00:49:40;9.40;;;4.88;;
21955;SDS011;11142;49.930;8.606;2022-09-17T00:52:10;7.18;;;4.70;;
21955;SDS011;11142;49.930;8.606;2022-09-17T00:54:45;9.43;;;4.85;;
21955;SDS011;11142;49.930;8.606;2022-09-17T00:57:19;6.90;;;4.00;;
21955;SDS011;11142;49.930;8.606;2022-09-17T00:59:48;14.38;;;4.93;;
21955;SDS011;11142;49.930;8.606;2022-09-17T01:02:17;4.10;;;2.67;;
21955;SDS011;11142;49.930;8.606;2022-09-17T01:04:47;30.48;;;12.02;;
21955;SDS011;11142;49.930;8.606;2022-09-17T01:07:20;9.80;;;3.38;;
21955;SDS011;11142;49.930;8.606;2022-09-17T01:10:05;3.58;;;1.80;;
21955;SDS011;11142;49.930;8.606;2022-09-17T01:12:46;4.38;;;2.30;;
21955;SDS011;11142;49.930;8.606;2022-09-17T01:15:27;7.95;;;3.10;;
21955;SDS011;11142;49.930;8.606;2022-09-17T01:18:10;4.88;;;2.35;;
21955;SDS011;11142;49.930;8.606;2022-09-17T01:21:01;5.05;;;2.70;;
21955;SDS011;11142;49.930;8.606;2022-09-17T01:24:02;7.55;;;2.10;;
21955;SDS011;11142;49.930;8.606;2022-09-17T01:30:02;3.55;;;1.85;;
21955;SDS011;11142;49.930;8.606;2022-09-17T01:32:50;4.90;;;2.15;;
21955;SDS011;11142;49.930;8.606;2022-09-17T01:35:31;4.70;;;1.67;;
21955;SDS011;11142;49.930;8.606;2022-09-17T01:38:07;3.33;;;1.88;;
21955;SDS011;11142;49.930;8.606;2022-09-17T01:40:47;4.43;;;1.90;;
21955;SDS011;11142;49.930;8.606;2022-09-17T01:43:22;2.80;;;1.23;;
21955;SDS011;11142;49.930;8.606;2022-09-17T01:45:54;4.20;;;1.42;;
21955;SDS011;11142;49.930;8.606;2022-09-17T01:51:03;4.90;;;1.75;;
21955;SDS011;11142;49.930;8.606;2022-09-17T01:53:35;1.25;;;1.00;;
21955;SDS011;11142;49.930;8.606;2022-09-17T01:56:09;3.95;;;1.40;;
21955;SDS011;11142;49.930;8.606;2022-09-17T01:58:41;1.17;;;1.00;;
21955;SDS011;11142;49.930;8.606;2022-09-17T02:01:13;2.13;;;1.50;;
21955;SDS011;11142;49.930;8.606;2022-09-17T02:03:47;4.00;;;1.33;;
21955;SDS011;11142;49.930;8.606;2022-09-17T02:06:21;1.77;;;1.23;;
21955;SDS011;11142;49.930;8.606;2022-09-17T02:08:56;3.83;;;1.30;;
21955;SDS011;11142;49.930;8.606;2022-09-17T02:11:28;3.55;;;1.13;;
21955;SDS011;11142;49.930;8.606;2022-09-17T02:13:59;4.45;;;1.15;;
21955;SDS011;11142;49.930;8.606;2022-09-17T02:16:32;2.67;;;1.20;;
21955;SDS011;11142;49.930;8.606;2022-09-17T02:19:06;4.78;;;1.23;;
21955;SDS011;11142;49.930;8.606;2022-09-17T02:21:39;1.88;;;1.00;;
21955;SDS011;11142;49.930;8.606;2022-09-17T02:24:15;3.08;;;1.10;;
21955;SDS011;11142;49.930;8.606;2022-09-17T02:26:47;3.58;;;1.23;;
21955;SDS011;11142;49.930;8.606;2022-09-17T02:29:28;4.50;;;1.20;;
21955;SDS011;11142;49.930;8.606;2022-09-17T02:31:59;2.92;;;1.40;;
21955;SDS011;11142;49.930;8.606;2022-09-17T02:34:31;2.65;;;1.33;;
21955;SDS011;11142;49.930;8.606;2022-09-17T02:37:00;2.17;;;1.50;;
21955;SDS011;11142;49.930;8.606;2022-09-17T02:39:30;1.20;;;1.10;;
21955;SDS011;11142;49.930;8.606;2022-09-17T02:42:01;6.88;;;1.65;;
21955;SDS011;11142;49.930;8.606;2022-09-17T02:44:40;2.47;;;1.42;;
21955;SDS011;11142;49.930;8.606;2022-09-17T02:47:22;5.13;;;1.50;;
21955;SDS011;11142;49.930;8.606;2022-09-17T02:50:05;3.00;;;1.40;;
21955;SDS011;11142;49.930;8.606;2022-09-17T02:55:25;5.53;;;1.58;;
21955;SDS011;11142;49.930;8.606;2022-09-17T02:58:03;2.65;;;1.50;;
21955;SDS011;11142;49.930;8.606;2022-09-17T03:00:40;3.25;;;1.70;;
21955;SDS011;11142;49.930;8.606;2022-09-17T03:03:10;4.38;;;1.85;;
21955;SDS011;11142;49.930;8.606;2022-09-17T03:05:45;3.60;;;1.60;;
21955;SDS011;11142;49.930;8.606;2022-09-17T03:08:15;2.30;;;1.25;;
21955;SDS011;11142;49.930;8.606;2022-09-17T03:10:45;2.38;;;1.67;;
21955;SDS011;11142;49.930;8.606;2022-09-17T03:13:15;6.65;;;2.13;;
21955;SDS011;11142;49.930;8.606;2022-09-17T03:15:45;4.00;;;1.80;;
21955;SDS011;11142;49.930;8.606;2022-09-17T03:18:13;3.88;;;1.75;;
21955;SDS011;11142;49.930;8.606;2022-09-17T03:20:41;2.33;;;1.60;;
21955;SDS011;11142;49.930;8.606;2022-09-17T03:23:11;4.15;;;1.75;;
21955;SDS011;11142;49.930;8.606;2022-09-17T03:25:41;2.63;;;1.55;;
21955;SDS011;11142;49.930;8.606;2022-09-17T03:28:09;3.55;;;1.90;;
21955;SDS011;11142;49.930;8.606;2022-09-17T03:30:37;4.55;;;1.98;;
21955;SDS011;11142;49.930;8.606;2022-09-17T03:33:07;6.03;;;1.83;;
21955;SDS011;11142;49.930;8.606;2022-09-17T03:35:35;5.30;;;2.00;;
21955;SDS011;11142;49.930;8.606;2022-09-17T03:38:03;5.57;;;2.28;;
21955;SDS011;11142;49.930;8.606;2022-09-17T03:40:33;5.60;;;2.10;;
21955;SDS011;11142;49.930;8.606;2022-09-17T03:43:03;2.95;;;1.90;;
21955;SDS011;11142;49.930;8.606;2022-09-17T03:45:31;3.20;;;2.30;;
21955;SDS011;11142;49.930;8.606;2022-09-17T03:48:00;4.28;;;2.72;;
21955;SDS011;11142;49.930;8.606;2022-09-17T03:50:28;5.78;;;2.00;;
21955;SDS011;11142;49.930;8.606;2022-09-17T03:52:56;4.65;;;2.60;;
21955;SDS011;11142;49.930;8.606;2022-09-17T03:55:24;3.83;;;2.58;;
21955;SDS011;11142;49.930;8.606;2022-09-17T03:57:54;3.85;;;2.25;;
21955;SDS011;11142;49.930;8.606;2022-09-17T04:00:22;8.43;;;2.67;;
21955;SDS011;11142;49.930;8.606;2022-09-17T04:02:50;5.03;;;2.70;;
21955;SDS011;11142;49.930;8.606;2022-09-17T04:05:19;5.75;;;2.63;;
21955;SDS011;11142;49.930;8.606;2022-09-17T04:07:47;4.43;;;2.50;;
21955;SDS011;11142;49.930;8.606;2022-09-17T04:10:16;3.65;;;2.40;;
21955;SDS011;11142;49.930;8.606;2022-09-17T04:12:44;3.70;;;2.53;;
21955;SDS011;11142;49.930;8.606;2022-09-17T04:15:14;4.22;;;3.05;;
21955;SDS011;11142;49.930;8.606;2022-09-17T04:17:42;4.35;;;2.55;;
21955;SDS011;11142;49.930;8.606;2022-09-17T04:20:10;5.88;;;2.70;;
21955;SDS011;11142;49.930;8.606;2022-09-17T04:22:38;7.57;;;2.78;;
21955;SDS011;11142;49.930;8.606;2022-09-17T04:25:07;4.25;;;2.38;;
21955;SDS011;11142;49.930;8.606;2022-09-17T04:27:36;5.22;;;3.13;;
21955;SDS011;11142;49.930;8.606;2022-09-17T04:30:06;5.72;;;2.72;;
21955;SDS011;11142;49.930;8.606;2022-09-17T04:32:38;6.05;;;3.25;;
21955;SDS011;11142;49.930;8.606;2022-09-17T04:35:07;6.05;;;2.85;;
21955;SDS011;11142;49.930;8.606;2022-09-17T04:37:35;3.88;;;2.55;;
21955;SDS011;11142;49.930;8.606;2022-09-17T04:40:04;2.75;;;2.17;;
21955;SDS011;11142;49.930;8.606;2022-09-17T04:42:36;3.35;;;2.40;;
21955;SDS011;11142;49.930;8.606;2022-09-17T04:45:05;2.95;;;2.33;;
21955;SDS011;11142;49.930;8.606;2022-09-17T04:47:36;4.97;;;2.70;;
21955;SDS011;11142;49.930;8.606;2022-09-17T04:50:07;2.85;;;2.30;;
21955;SDS011;11142;49.930;8.606;2022-09-17T04:52:36;5.05;;;2.75;;
21955;SDS011;11142;49.930;8.606;2022-09-17T04:55:11;3.97;;;2.20;;
21955;SDS011;11142;49.930;8.606;2022-09-17T04:57:45;5.57;;;3.35;;
21955;SDS011;11142;49.930;8.606;2022-09-17T05:00:14;9.20;;;2.85;;
21955;SDS011;11142;49.930;8.606;2022-09-17T05:02:47;5.57;;;2.58;;
21955;SDS011;11142;49.930;8.606;2022-09-17T05:05:17;5.03;;;2.65;;
21955;SDS011;11142;49.930;8.606;2022-09-17T05:07:48;3.65;;;2.70;;
21955;SDS011;11142;49.930;8.606;2022-09-17T05:10:17;7.25;;;2.95;;
21955;SDS011;11142;49.930;8.606;2022-09-17T05:12:48;4.38;;;2.83;;
21955;SDS011;11142;49.930;8.606;2022-09-17T05:15:16;4.25;;;2.65;;
21955;SDS011;11142;49.930;8.606;2022-09-17T05:17:47;6.80;;;3.00;;
21955;SDS011;11142;49.930;8.606;2022-09-17T05:20:17;9.05;;;2.88;;
21955;SDS011;11142;49.930;8.606;2022-09-17T05:22:47;5.93;;;2.72;;
21955;SDS011;11142;49.930;8.606;2022-09-17T05:25:17;6.47;;;3.00;;
21955;SDS011;11142;49.930;8.606;2022-09-17T05:27:49;6.05;;;3.33;;
21955;SDS011;11142;49.930;8.606;2022-09-17T05:30:18;5.80;;;3.10;;
21955;SDS011;11142;49.930;8.606;2022-09-17T05:32:54;3.78;;;3.03;;
21955;SDS011;11142;49.930;8.606;2022-09-17T05:35:26;6.25;;;2.70;;
21955;SDS011;11142;49.930;8.606;2022-09-17T05:37:57;3.45;;;2.78;;
21955;SDS011;11142;49.930;8.606;2022-09-17T05:40:27;4.20;;;2.72;;
21955;SDS011;11142;49.930;8.606;2022-09-17T05:42:58;7.10;;;3.05;;
21955;SDS011;11142;49.930;8.606;2022-09-17T05:45:27;6.05;;;2.72;;
21955;SDS011;11142;49.930;8.606;2022-09-17T05:47:57;5.50;;;2.78;;
21955;SDS011;11142;49.930;8.606;2022-09-17T05:50:33;8.98;;;3.40;;
21955;SDS011;11142;49.930;8.606;2022-09-17T05:53:02;5.63;;;2.58;;
21955;SDS011;11142;49.930;8.606;2022-09-17T05:55:34;6.63;;;2.80;;
21955;SDS011;11142;49.930;8.606;2022-09-17T05:58:10;7.13;;;3.13;;
21955;SDS011;11142;49.930;8.606;2022-09-17T06:00:40;5.13;;;2.42;;
21955;SDS011;11142;49.930;8.606;2022-09-17T06:03:11;3.35;;;2.58;;
21955;SDS011;11142;49.930;8.606;2022-09-17T06:05:51;4.57;;;2.38;;
21955;SDS011;11142;49.930;8.606;2022-09-17T06:08:21;7.05;;;2.05;;
21955;SDS011;11142;49.930;8.606;2022-09-17T06:10:49;4.07;;;2.00;;
21955;SDS011;11142;49.930;8.606;2022-09-17T06:13:18;3.58;;;2.75;;
21955;SDS011;11142;49.930;8.606;2022-09-17T06:15:50;5.55;;;1.88;;
21955;SDS011;11142;49.930;8.606;2022-09-17T06:18:21;3.80;;;1.40;;
21955;SDS011;11142;49.930;8.606;2022-09-17T06:20:52;2.58;;;1.70;;
21955;SDS011;11142;49.930;8.606;2022-09-17T06:23:21;2.90;;;2.13;;
21955;SDS011;11142;49.930;8.606;2022-09-17T06:25:51;2.60;;;1.90;;
21955;SDS011;11142;49.930;8.606;2022-09-17T06:28:20;5.00;;;2.00;;
21955;SDS011;11142;49.930;8.606;2022-09-17T06:30:48;6.95;;;1.90;;
21955;SDS011;11142;49.930;8.606;2022-09-17T06:33:20;5.22;;;2.33;;
21955;SDS011;11142;49.930;8.606;2022-09-17T06:35:54;3.72;;;1.60;;
21955;SDS011;11142;49.930;8.606;2022-09-17T06:38:25;9.52;;;2.70;;
21955;SDS011;11142;49.930;8.606;2022-09-17T06:40:56;3.92;;;2.10;;
21955;SDS011;11142;49.930;8.606;2022-09-17T06:43:24;5.95;;;2.38;;
21955;SDS011;11142;49.930;8.606;2022-09-17T06:45:53;2.53;;;1.95;;
21955;SDS011;11142;49.930;8.606;2022-09-17T06:48:24;2.40;;;1.52;;
21955;SDS011;11142;49.930;8.606;2022-09-17T06:50:53;3.22;;;1.27;;
21955;SDS011;11142;49.930;8.606;2022-09-17T06:53:22;2.22;;;1.45;;
21955;SDS011;11142;49.930;8.606;2022-09-17T06:55:51;3.83;;;1.40;;
21955;SDS011;11142;49.930;8.606;2022-09-17T06:58:20;2.67;;;1.40;;
21955;SDS011;11142;49.930;8.606;2022-09-17T07:00:48;3.17;;;1.75;;
21955;SDS011;11142;49.930;8.606;2022-09-17T07:03:18;1.58;;;1.40;;
21955;SDS011;11142;49.930;8.606;2022-09-17T07:05:50;5.28;;;1.63;;
21955;SDS011;11142;49.930;8.606;2022-09-17T07:08:18;5.18;;;1.95;;
21955;SDS011;11142;49.930;8.606;2022-09-17T07:10:47;4.13;;;1.50;;
21955;SDS011;11142;49.930;8.606;2022-09-17T07:13:15;3.58;;;1.70;;
21955;SDS011;11142;49.930;8.606;2022-09-17T07:15:50;4.20;;;2.00;;
21955;SDS011;11142;49.930;8.606;2022-09-17T07:18:19;5.32;;;1.80;;
21955;SDS011;11142;49.930;8.606;2022-09-17T07:20:55;2.88;;;1.67;;
21955;SDS011;11142;49.930;8.606;2022-09-17T07:23:26;3.17;;;2.03;;
21955;SDS011;11142;49.930;8.606;2022-09-17T07:25:56;6.75;;;2.35;;
21955;SDS011;11142;49.930;8.606;2022-09-17T07:28:26;3.78;;;1.95;;
21955;SDS011;11142;49.930;8.606;2022-09-17T07:30:55;2.20;;;1.67;;
21955;SDS011;11142;49.930;8.606;2022-09-17T07:33:25;4.68;;;1.83;;
21955;SDS011;11142;49.930;8.606;2022-09-17T07:35:55;3.33;;;2.83;;
21955;SDS011;11142;49.930;8.606;2022-09-17T07:38:25;5.30;;;2.00;;
21955;SDS011;11142;49.930;8.606;2022-09-17T07:40:55;7.07;;;2.00;;
21955;SDS011;11142;49.930;8.606;2022-09-17T07:43:24;6.00;;;2.20;;
21955;SDS011;11142;49.930;8.606;2022-09-17T07:45:53;2.83;;;2.13;;
21955;SDS011;11142;49.930;8.606;2022-09-17T07:48:22;5.68;;;2.05;;
21955;SDS011;11142;49.930;8.606;2022-09-17T07:50:51;8.60;;;2.22;;
21955;SDS011;11142;49.930;8.606;2022-09-17T07:53:22;4.95;;;1.65;;
21955;SDS011;11142;49.930;8.606;2022-09-17T07:55:50;3.85;;;2.00;;
21955;SDS011;11142;49.930;8.606;2022-09-17T07:58:21;5.45;;;1.23;;
21955;SDS011;11142;49.930;8.606;2022-09-17T08:00:51;8.68;;;2.42;;
21955;SDS011;11142;49.930;8.606;2022-09-17T08:03:22;6.68;;;1.85;;
21955;SDS011;11142;49.930;8.606;2022-09-17T08:05:50;8.40;;;1.80;;
21955;SDS011;11142;49.930;8.606;2022-09-17T08:08:23;2.90;;;1.52;;
21955;SDS011;11142;49.930;8.606;2022-09-17T08:10:51;3.45;;;1.70;;
21955;SDS011;11142;49.930;8.606;2022-09-17T08:13:19;8.20;;;1.83;;
21955;SDS011;11142;49.930;8.606;2022-09-17T08:15:47;5.95;;;1.70;;
21955;SDS011;11142;49.930;8.606;2022-09-17T08:18:16;3.97;;;1.80;;
21955;SDS011;11142;49.930;8.606;2022-09-17T08:20:55;4.85;;;2.03;;
21955;SDS011;11142;49.930;8.606;2022-09-17T08:23:29;3.63;;;1.80;;
21955;SDS011;11142;49.930;8.606;2022-09-17T08:25:58;5.68;;;1.95;;
21955;SDS011;11142;49.930;8.606;2022-09-17T08:28:27;3.28;;;1.65;;
21955;SDS011;11142;49.930;8.606;2022-09-17T08:30:59;3.42;;;1.80;;
21955;SDS011;11142;49.930;8.606;2022-09-17T08:33:29;7.03;;;2.35;;
21955;SDS011;11142;49.930;8.606;2022-09-17T08:36:00;6.18;;;1.95;;
21955;SDS011;11142;49.930;8.606;2022-09-17T08:38:32;3.60;;;1.83;;
21955;SDS011;11142;49.930;8.606;2022-09-17T08:41:06;5.22;;;1.30;;
21955;SDS011;11142;49.930;8.606;2022-09-17T08:43:45;3.47;;;1.70;;
21955;SDS011;11142;49.930;8.606;2022-09-17T08:46:18;4.53;;;1.70;;
21955;SDS011;11142;49.930;8.606;2022-09-17T08:48:50;3.45;;;1.55;;
21955;SDS011;11142;49.930;8.606;2022-09-17T08:51:26;4.95;;;2.20;;
21955;SDS011;11142;49.930;8.606;2022-09-17T08:54:07;6.07;;;2.00;;
21955;SDS011;11142;49.930;8.606;2022-09-17T08:56:44;5.35;;;1.73;;
21955;SDS011;11142;49.930;8.606;2022-09-17T08:59:20;3.95;;;1.48;;
21955;SDS011;11142;49.930;8.606;2022-09-17T09:01:57;7.18;;;1.92;;
21955;SDS011;11142;49.930;8.606;2022-09-17T09:07:25;3.92;;;1.70;;
21955;SDS011;11142;49.930;8.606;2022-09-17T09:10:02;3.47;;;1.23;;
21955;SDS011;11142;49.930;8.606;2022-09-17T09:12:38;1.55;;;1.20;;
21955;SDS011;11142;49.930;8.606;2022-09-17T09:15:14;3.60;;;1.60;;
21955;SDS011;11142;49.930;8.606;2022-09-17T09:17:49;3.25;;;1.30;;
21955;SDS011;11142;49.930;8.606;2022-09-17T09:20:20;2.70;;;1.35;;
21955;SDS011;11142;49.930;8.606;2022-09-17T09:22:58;2.65;;;1.50;;
21955;SDS011;11142;49.930;8.606;2022-09-17T09:25:41;3.88;;;1.60;;
21955;SDS011;11142;49.930;8.606;2022-09-17T09:28:21;4.10;;;1.65;;
21955;SDS011;11142;49.930;8.606;2022-09-17T09:31:26;5.00;;;1.40;;
21955;SDS011;11142;49.930;8.606;2022-09-17T09:34:07;2.22;;;1.40;;
21955;SDS011;11142;49.930;8.606;2022-09-17T09:36:36;3.05;;;1.50;;
21955;SDS011;11142;49.930;8.606;2022-09-17T09:39:08;6.07;;;1.27;;
21955;SDS011;11142;49.930;8.606;2022-09-17T09:41:44;5.57;;;1.30;;
21955;SDS011;11142;49.930;8.606;2022-09-17T09:44:17;4.97;;;1.48;;
21955;SDS011;11142;49.930;8.606;2022-09-17T09:46:49;1.35;;;1.25;;
21955;SDS011;11142;49.930;8.606;2022-09-17T09:49:43;4.70;;;1.15;;
21955;SDS011;11142;49.930;8.606;2022-09-17T09:52:25;7.60;;;1.42;;
21955;SDS011;11142;49.930;8.606;2022-09-17T09:55:09;3.22;;;1.20;;
21955;SDS011;11142;49.930;8.606;2022-09-17T09:58:04;4.07;;;1.40;;
21955;SDS011;11142;49.930;8.606;2022-09-17T10:03:12;2.00;;;1.00;;
21955;SDS011;11142;49.930;8.606;2022-09-17T10:05:51;4.28;;;1.00;;
21955;SDS011;11142;49.930;8.606;2022-09-17T10:08:21;1.35;;;0.73;;
21955;SDS011;11142;49.930;8.606;2022-09-17T10:10:53;0.82;;;0.82;;
21955;SDS011;11142;49.930;8.606;2022-09-17T10:13:27;1.70;;;0.90;;
21955;SDS011;11142;49.930;8.606;2022-09-17T10:16:02;0.90;;;0.70;;
21955;SDS011;11142;49.930;8.606;2022-09-17T10:18:43;0.80;;;0.80;;
21955;SDS011;11142;49.930;8.606;2022-09-17T10:21:18;1.92;;;1.20;;
21955;SDS011;11142;49.930;8.606;2022-09-17T10:23:47;4.57;;;1.10;;
21955;SDS011;11142;49.930;8.606;2022-09-17T10:26:21;2.40;;;1.13;;
21955;SDS011;11142;49.930;8.606;2022-09-17T10:28:56;9.15;;;1.45;;
21955;SDS011;11142;49.930;8.606;2022-09-17T10:31:26;3.72;;;1.10;;
21955;SDS011;11142;49.930;8.606;2022-09-17T10:33:55;2.28;;;1.23;;
21955;SDS011;11142;49.930;8.606;2022-09-17T10:36:36;4.63;;;1.27;;
21955;SDS011;11142;49.930;8.606;2022-09-17T10:42:00;2.57;;;1.00;;
21955;SDS011;11142;49.930;8.606;2022-09-17T10:44:32;3.53;;;1.35;;
21955;SDS011;11142;49.930;8.606;2022-09-17T10:47:04;1.85;;;1.25;;
21955;SDS011;11142;49.930;8.606;2022-09-17T10:49:38;4.78;;;0.88;;
21955;SDS011;11142;49.930;8.606;2022-09-17T10:52:11;2.63;;;1.20;;
21955;SDS011;11142;49.930;8.606;2022-09-17T10:57:45;2.25;;;0.82;;
21955;SDS011;11142;49.930;8.606;2022-09-17T11:00:25;6.00;;;1.45;;
21955;SDS011;11142;49.930;8.606;2022-09-17T11:03:13;2.85;;;0.98;;
21955;SDS011;11142;49.930;8.606;2022-09-17T11:06:06;6.15;;;0.77;;
21955;SDS011;11142;49.930;8.606;2022-09-17T11:08:48;4.65;;;0.75;;
21955;SDS011;11142;49.930;8.606;2022-09-17T11:11:30;4.35;;;1.27;;
21955;SDS011;11142;49.930;8.606;2022-09-17T11:14:10;5.40;;;1.05;;
21955;SDS011;11142;49.930;8.606;2022-09-17T11:16:56;2.72;;;0.70;;
21955;SDS011;11142;49.930;8.606;2022-09-17T11:19:36;3.97;;;1.00;;
21955;SDS011;11142;49.930;8.606;2022-09-17T11:22:15;4.43;;;1.13;;
21955;SDS011;11142;49.930;8.606;2022-09-17T11:25:04;4.22;;;1.00;;
21955;SDS011;11142;49.930;8.606;2022-09-17T11:27:51;5.63;;;1.10;;
21955;SDS011;11142;49.930;8.606;2022-09-17T11:30:28;4.28;;;0.95;;
21955;SDS011;11142;49.930;8.606;2022-09-17T11:33:14;2.85;;;1.15;;
21955;SDS011;11142;49.930;8.606;2022-09-17T11:35:54;3.55;;;1.30;;
21955;SDS011;11142;49.930;8.606;2022-09-17T11:43:32;4.03;;;1.75;;
21955;SDS011;11142;49.930;8.606;2022-09-17T11:46:04;4.50;;;0.90;;
21955;SDS011;11142;49.930;8.606;2022-09-17T11:48:44;4.65;;;1.17;;
21955;SDS011;11142;49.930;8.606;2022-09-17T11:51:22;4.97;;;0.80;;
21955;SDS011;11142;49.930;8.606;2022-09-17T11:54:05;6.97;;;2.60;;
21955;SDS011;11142;49.930;8.606;2022-09-17T11:56:43;2.78;;;1.40;;
21955;SDS011;11142;49.930;8.606;2022-09-17T11:59:16;3.53;;;0.90;;
21955;SDS011;11142;49.930;8.606;2022-09-17T12:01:54;3.40;;;0.93;;
21955;SDS011;11142;49.930;8.606;2022-09-17T12:04:30;1.52;;;0.52;;
21955;SDS011;11142;49.930;8.606;2022-09-17T12:07:09;3.10;;;0.70;;
21955;SDS011;11142;49.930;8.606;2022-09-17T12:09:48;2.55;;;1.00;;
21955;SDS011;11142;49.930;8.606;2022-09-17T12:12:23;2.63;;;1.30;;
21955;SDS011;11142;49.930;8.606;2022-09-17T12:15:17;4.30;;;0.77;;
21955;SDS011;11142;49.930;8.606;2022-09-17T12:17:49;0.88;;;0.35;;
21955;SDS011;11142;49.930;8.606;2022-09-17T12:20:46;4.07;;;0.88;;
21955;SDS011;11142;49.930;8.606;2022-09-17T12:23:21;7.18;;;0.52;;
21955;SDS011;11142;49.930;8.606;2022-09-17T12:26:00;1.65;;;0.57;;
21955;SDS011;11142;49.930;8.606;2022-09-17T12:28:37;1.88;;;0.57;;
21955;SDS011;11142;49.930;8.606;2022-09-17T12:31:16;2.83;;;0.73;;
21955;SDS011;11142;49.930;8.606;2022-09-17T12:33:52;3.45;;;0.50;;
21955;SDS011;11142;49.930;8.606;2022-09-17T12:36:31;2.83;;;0.75;;
21955;SDS011;11142;49.930;8.606;2022-09-17T12:42:18;3.63;;;0.52;;
21955;SDS011;11142;49.930;8.606;2022-09-17T12:45:05;2.40;;;0.85;;
21955;SDS011;11142;49.930;8.606;2022-09-17T12:47:51;2.55;;;0.73;;
21955;SDS011;11142;49.930;8.606;2022-09-17T12:50:45;1.73;;;0.80;;
21955;SDS011;11142;49.930;8.606;2022-09-17T12:53:25;3.20;;;0.50;;
21955;SDS011;11142;49.930;8.606;2022-09-17T12:56:01;2.10;;;0.73;;
21955;SDS011;11142;49.930;8.606;2022-09-17T12:58:49;1.98;;;0.45;;
21955;SDS011;11142;49.930;8.606;2022-09-17T13:01:29;2.00;;;0.40;;
21955;SDS011;11142;49.930;8.606;2022-09-17T13:04:05;2.40;;;0.60;;
21955;SDS011;11142;49.930;8.606;2022-09-17T13:07:17;1.13;;;0.50;;
21955;SDS011;11142;49.930;8.606;2022-09-17T13:10:11;1.33;;;0.52;;
21955;SDS011;11142;49.930;8.606;2022-09-17T13:12:52;1.48;;;0.60;;
21955;SDS011;11142;49.930;8.606;2022-09-17T13:15:36;1.35;;;0.50;;
21955;SDS011;11142;49.930;8.606;2022-09-17T13:18:16;1.40;;;0.30;;
21955;SDS011;11142;49.930;8.606;2022-09-17T13:20:57;1.00;;;0.65;;
21955;SDS011;11142;49.930;8.606;2022-09-17T13:23:32;1.10;;;0.30;;
21955;SDS011;11142;49.930;8.606;2022-09-17T13:26:08;0.63;;;0.20;;
21955;SDS011;11142;49.930;8.606;2022-09-17T13:28:39;1.08;;;0.50;;
21955;SDS011;11142;49.930;8.606;2022-09-17T13:31:18;1.27;;;0.35;;
21955;SDS011;11142;49.930;8.606;2022-09-17T13:33:55;0.35;;;0.20;;
21955;SDS011;11142;49.930;8.606;2022-09-17T13:36:34;1.95;;;0.52;;
21955;SDS011;11142;49.930;8.606;2022-09-17T13:39:06;0.47;;;0.47;;
21955;SDS011;11142;49.930;8.606;2022-09-17T13:41:40;1.88;;;0.63;;
21955;SDS011;11142;49.930;8.606;2022-09-17T13:44:11;1.35;;;0.45;;
21955;SDS011;11142;49.930;8.606;2022-09-17T13:46:53;2.55;;;0.40;;
21955;SDS011;11142;49.930;8.606;2022-09-17T13:49:42;1.42;;;0.30;;
21955;SDS011;11142;49.930;8.606;2022-09-17T13:52:13;1.10;;;0.50;;
21955;SDS011;11142;49.930;8.606;2022-09-17T13:54:41;1.33;;;0.55;;
21955;SDS011;11142;49.930;8.606;2022-09-17T13:57:11;0.43;;;0.30;;
21955;SDS011;11142;49.930;8.606;2022-09-17T13:59:51;0.63;;;0.47;;
21955;SDS011;11142;49.930;8.606;2022-09-17T14:02:29;0.75;;;0.32;;
21955;SDS011;11142;49.930;8.606;2022-09-17T14:08:10;0.75;;;0.38;;
21955;SDS011;11142;49.930;8.606;2022-09-17T14:11:00;1.58;;;0.57;;
21955;SDS011;11142;49.930;8.606;2022-09-17T14:13:43;0.75;;;0.40;;
21955;SDS011;11142;49.930;8.606;2022-09-17T14:18:55;0.30;;;0.20;;
21955;SDS011;11142;49.930;8.606;2022-09-17T14:21:26;1.65;;;0.52;;
21955;SDS011;11142;49.930;8.606;2022-09-17T14:23:59;2.28;;;0.40;;
21955;SDS011;11142;49.930;8.606;2022-09-17T14:29:37;1.17;;;0.35;;
21955;SDS011;11142;49.930;8.606;2022-09-17T14:32:32;1.45;;;0.43;;
21955;SDS011;11142;49.930;8.606;2022-09-17T14:35:18;0.88;;;0.30;;
21955;SDS011;11142;49.930;8.606;2022-09-17T14:37:54;0.28;;;0.28;;
21955;SDS011;11142;49.930;8.606;2022-09-17T14:40:26;5.07;;;0.60;;
21955;SDS011;11142;49.930;8.606;2022-09-17T14:42:57;1.45;;;0.52;;
21955;SDS011;11142;49.930;8.606;2022-09-17T14:45:28;1.52;;;0.52;;
21955;SDS011;11142;49.930;8.606;2022-09-17T14:51:10;1.17;;;0.60;;
21955;SDS011;11142;49.930;8.606;2022-09-17T14:57:02;2.70;;;0.63;;
21955;SDS011;11142;49.930;8.606;2022-09-17T14:59:48;1.73;;;0.38;;
21955;SDS011;11142;49.930;8.606;2022-09-17T15:02:28;1.33;;;0.30;;
21955;SDS011;11142;49.930;8.606;2022-09-17T15:05:00;1.20;;;0.43;;
21955;SDS011;11142;49.930;8.606;2022-09-17T15:07:29;2.30;;;0.30;;
21955;SDS011;11142;49.930;8.606;2022-09-17T15:10:07;1.88;;;0.55;;
21955;SDS011;11142;49.930;8.606;2022-09-17T15:12:39;4.82;;;2.08;;
21955;SDS011;11142;49.930;8.606;2022-09-17T15:15:09;2.58;;;1.50;;
21955;SDS011;11142;49.930;8.606;2022-09-17T15:17:47;1.35;;;0.32;;
21955;SDS011;11142;49.930;8.606;2022-09-17T15:20:18;0.75;;;0.30;;
21955;SDS011;11142;49.930;8.606;2022-09-17T15:22:50;1.08;;;0.40;;
21955;SDS011;11142;49.930;8.606;2022-09-17T15:25:22;0.43;;;0.25;;
21955;SDS011;11142;49.930;8.606;2022-09-17T15:27:57;1.45;;;0.90;;
21955;SDS011;11142;49.930;8.606;2022-09-17T15:30:35;1.52;;;0.32;;
21955;SDS011;11142;49.930;8.606;2022-09-17T15:33:07;1.65;;;0.30;;
21955;SDS011;11142;49.930;8.606;2022-09-17T15:35:39;2.50;;;2.15;;
21955;SDS011;11142;49.930;8.606;2022-09-17T15:38:19;1.05;;;0.52;;
21955;SDS011;11142;49.930;8.606;2022-09-17T15:40:49;5.68;;;3.22;;
21955;SDS011;11142;49.930;8.606;2022-09-17T15:43:20;3.65;;;1.15;;
21955;SDS011;11142;49.930;8.606;2022-09-17T15:46:18;1.58;;;0.50;;
21955;SDS011;11142;49.930;8.606;2022-09-17T15:48:52;1.40;;;0.50;;
21955;SDS011;11142;49.930;8.606;2022-09-17T15:51:29;2.58;;;1.50;;
21955;SDS011;11142;49.930;8.606;2022-09-17T15:54:00;2.78;;;2.30;;
21955;SDS011;11142;49.930;8.606;2022-09-17T15:56:31;2.67;;;1.35;;
21955;SDS011;11142;49.930;8.606;2022-09-17T15:59:03;4.53;;;1.55;;
21955;SDS011;11142;49.930;8.606;2022-09-17T16:04:24;4.28;;;2.20;;
21955;SDS011;11142;49.930;8.606;2022-09-17T16:06:59;1.10;;;0.95;;
21955;SDS011;11142;49.930;8.606;2022-09-17T16:09:48;2.60;;;1.20;;
21955;SDS011;11142;49.930;8.606;2022-09-17T16:12:19;2.35;;;1.10;;
21955;SDS011;11142;49.930;8.606;2022-09-17T16:14:50;1.05;;;0.85;;
21955;SDS011;11142;49.930;8.606;2022-09-17T16:17:27;1.65;;;0.70;;
21955;SDS011;11142;49.930;8.606;2022-09-17T16:20:06;2.92;;;0.63;;